createdAt,value
2022-10-07T00:00:10.985Z,82.36
2022-10-07T00:02:43.422Z,81.78
2022-10-07T00:05:17.002Z,81.90
2022-10-07T00:07:49.328Z,81.18
2022-10-07T00:10:21.586Z,81.55
2022-10-07T00:12:53.981Z,81.40
2022-10-07T00:15:26.698Z,80.90
2022-10-07T00:17:59.001Z,81.27
2022-10-07T00:20:36.932Z,81.05
2022-10-07T00:23:09.229Z,80.67
2022-10-07T00:25:41.548Z,80.83
2022-10-07T00:28:13.905Z,80.19
2022-10-07T00:30:46.239Z,80.86
2022-10-07T00:33:18.585Z,81.38
2022-10-07T00:35:51.625Z,81.34
2022-10-07T00:38:23.947Z,81.03
2022-10-07T00:40:56.288Z,81.35
2022-10-07T00:43:30.567Z,80.79
2022-10-07T00:46:07.696Z,81.27
2022-10-07T00:48:41.037Z,80.91
2022-10-07T00:51:16.416Z,80.67
2022-10-07T00:53:52.251Z,81.21
2022-10-07T00:56:27.117Z,81.18
2022-10-07T00:58:59.630Z,81.27
2022-10-07T01:01:34.724Z,80.73
2022-10-07T01:04:11.986Z,81.00
2022-10-07T01:06:45.114Z,81.26
2022-10-07T01:09:20.759Z,81.43
2022-10-07T01:11:59.862Z,81.37
2022-10-07T01:14:45.835Z,81.66
2022-10-07T01:17:22.980Z,81.73
2022-10-07T01:20:28.998Z,82.54
2022-10-07T01:23:19.104Z,82.34
2022-10-07T01:26:03.652Z,83.15
2022-10-07T01:28:41.610Z,82.83
2022-10-07T01:31:17.455Z,83.94
2022-10-07T01:33:54.371Z,84.43
2022-10-07T01:36:28.686Z,85.12
2022-10-07T01:39:07.695Z,85.14
2022-10-07T01:41:40.955Z,85.42
2022-10-07T01:44:14.071Z,85.48
2022-10-07T01:46:47.113Z,85.63
2022-10-07T01:49:19.434Z,85.73
2022-10-07T01:52:08.146Z,85.92
2022-10-07T01:54:50.490Z,86.41
2022-10-07T01:57:32.202Z,86.34
2022-10-07T02:00:11.047Z,87.08
2022-10-07T02:03:17.090Z,87.38
2022-10-07T02:05:59.950Z,87.33
2022-10-07T02:08:36.975Z,88.03
2022-10-07T02:11:15.406Z,88.25
2022-10-07T02:14:00.299Z,88.30
2022-10-07T02:16:41.764Z,88.91
2022-10-07T02:19:17.987Z,89.00
2022-10-07T02:21:53.015Z,89.02
2022-10-07T02:24:29.315Z,89.49
2022-10-07T02:27:07.851Z,89.55
2022-10-07T02:29:42.711Z,89.79
2022-10-07T02:32:20.220Z,89.93
2022-10-07T02:35:18.926Z,89.23
2022-10-07T02:37:55.550Z,90.19
2022-10-07T02:40:33.704Z,90.61
2022-10-07T02:43:11.602Z,90.14
2022-10-07T02:45:47.992Z,89.82
2022-10-07T02:48:26.423Z,90.22
2022-10-07T02:51:03.631Z,90.78
2022-10-07T02:53:38.113Z,90.41
2022-10-07T02:56:11.792Z,90.06
2022-10-07T02:58:46.027Z,91.21
2022-10-07T03:01:24.840Z,90.72
2022-10-07T03:03:58.418Z,91.37
2022-10-07T03:06:30.854Z,91.56
2022-10-07T03:09:06.316Z,91.77
2022-10-07T03:11:39.238Z,91.97
2022-10-07T03:14:12.094Z,92.08
2022-10-07T03:16:44.551Z,91.55
2022-10-07T03:19:17.667Z,91.59
2022-10-07T03:22:01.693Z,92.03
2022-10-07T03:24:36.249Z,92.13
2022-10-07T03:27:08.710Z,91.73
2022-10-07T03:29:43.241Z,91.80
2022-10-07T03:32:16.304Z,91.54
2022-10-07T03:34:49.303Z,91.37
2022-10-07T03:37:21.877Z,91.61
2022-10-07T03:39:54.285Z,91.27
2022-10-07T03:42:27.188Z,91.43
2022-10-07T03:44:59.518Z,91.79
2022-10-07T03:47:32.516Z,91.71
2022-10-07T03:50:06.529Z,91.83
2022-10-07T03:52:38.839Z,91.69
2022-10-07T03:55:11.326Z,91.46
2022-10-07T03:57:57.071Z,92.06
2022-10-07T04:00:32.394Z,93.19
2022-10-07T04:03:06.973Z,92.80
2022-10-07T04:05:40.063Z,92.82
2022-10-07T04:08:17.230Z,93.06
2022-10-07T04:10:50.009Z,93.01
2022-10-07T04:13:22.503Z,93.59
2022-10-07T04:15:55.820Z,93.50
2022-10-07T04:18:28.994Z,93.99
2022-10-07T04:21:02.087Z,93.50
2022-10-07T04:23:37.363Z,93.91
2022-10-07T04:26:11.276Z,94.03
2022-10-07T04:28:48.406Z,94.38
2022-10-07T04:31:24.380Z,94.16
2022-10-07T04:34:10.034Z,94.00
2022-10-07T04:36:47.123Z,94.32
2022-10-07T04:39:33.213Z,94.20
2022-10-07T04:42:29.547Z,93.73
2022-10-07T04:45:09.416Z,93.40
2022-10-07T04:47:44.951Z,93.69
2022-10-07T04:50:17.927Z,93.62
2022-10-07T04:52:54.128Z,93.37
2022-10-07T04:55:27.515Z,92.22
2022-10-07T04:58:00.223Z,91.94
2022-10-07T05:00:33.054Z,92.01
2022-10-07T05:03:05.460Z,92.35
2022-10-07T05:05:41.423Z,91.89
2022-10-07T05:08:15.963Z,91.75
2022-10-07T05:10:48.414Z,91.76
2022-10-07T05:13:21.749Z,91.71
2022-10-07T05:15:56.145Z,90.79
2022-10-07T05:18:30.478Z,90.51
2022-10-07T05:21:08.054Z,89.28
2022-10-07T05:23:45.182Z,88.42
2022-10-07T05:26:22.045Z,88.90
2022-10-07T05:29:00.118Z,88.99
2022-10-07T05:31:40.632Z,88.79
2022-10-07T05:34:13.375Z,88.40
2022-10-07T05:36:46.314Z,88.81
2022-10-07T05:39:19.582Z,87.85
2022-10-07T05:41:58.300Z,88.25
2022-10-07T05:44:37.108Z,87.69
2022-10-07T05:47:10.899Z,87.37
2022-10-07T05:49:43.346Z,87.88
2022-10-07T05:52:15.993Z,87.64
2022-10-07T05:54:51.175Z,86.75
2022-10-07T05:57:24.101Z,87.17
2022-10-07T05:59:58.190Z,86.63
2022-10-07T06:02:30.921Z,86.40
2022-10-07T06:05:04.251Z,86.10
2022-10-07T06:07:37.086Z,85.65
2022-10-07T06:10:29.282Z,85.56
2022-10-07T06:13:07.394Z,85.31
2022-10-07T06:15:40.239Z,84.53
2022-10-07T06:18:13.367Z,83.91
2022-10-07T06:20:53.364Z,83.77
2022-10-07T06:23:26.587Z,81.46
2022-10-07T06:26:01.647Z,80.30
2022-10-07T06:28:36.810Z,80.88
2022-10-07T06:31:11.365Z,79.64
2022-10-07T06:33:43.862Z,79.08
2022-10-07T06:36:16.851Z,77.90
2022-10-07T06:38:53.070Z,78.00
2022-10-07T06:41:30.409Z,77.50
2022-10-07T06:44:27.571Z,76.29
2022-10-07T06:47:01.874Z,76.53
2022-10-07T06:49:34.197Z,75.62
2022-10-07T06:52:06.638Z,75.48
2022-10-07T06:54:39.011Z,76.93
2022-10-07T06:57:40.360Z,76.60
2022-10-07T07:00:05.442Z,77.09
2022-10-07T07:02:38.872Z,76.58
2022-10-07T07:05:14.947Z,77.20
2022-10-07T07:07:49.348Z,77.89
2022-10-07T07:10:22.318Z,75.80
2022-10-07T07:12:57.841Z,76.10
2022-10-07T07:15:30.686Z,74.15
2022-10-07T07:18:05.109Z,75.27
2022-10-07T07:20:38.674Z,74.72
2022-10-07T07:23:10.974Z,74.91
2022-10-07T07:25:45.154Z,74.57
2022-10-07T07:28:18.743Z,73.75
2022-10-07T07:30:51.215Z,73.17
2022-10-07T07:33:23.993Z,72.08
2022-10-07T07:35:56.857Z,71.04
2022-10-07T07:38:29.236Z,69.64
2022-10-07T07:41:04.535Z,70.07
2022-10-07T07:43:37.515Z,69.10
2022-10-07T07:46:11.905Z,66.93
2022-10-07T07:48:44.882Z,65.14
2022-10-07T07:51:18.310Z,65.90
2022-10-07T07:53:51.590Z,66.48
2022-10-07T07:56:25.094Z,66.18
2022-10-07T07:58:58.331Z,65.78
2022-10-07T08:01:31.213Z,64.58
2022-10-07T08:04:04.127Z,63.66
2022-10-07T08:06:39.672Z,62.66
2022-10-07T08:09:12.466Z,63.80
2022-10-07T08:11:46.690Z,63.00
2022-10-07T08:14:22.790Z,61.56
2022-10-07T08:16:58.470Z,60.99
2022-10-07T08:19:31.582Z,59.70
2022-10-07T08:22:06.432Z,60.58
2022-10-07T08:24:39.926Z,58.17
2022-10-07T08:27:12.482Z,55.50
2022-10-07T08:29:46.026Z,56.86
2022-10-07T08:32:18.443Z,54.28
2022-10-07T08:34:50.765Z,56.29
2022-10-07T08:37:23.104Z,54.19
2022-10-07T08:39:55.387Z,53.96
2022-10-07T08:42:34.241Z,54.08
2022-10-07T08:45:15.593Z,55.39
2022-10-07T08:47:50.857Z,54.43
2022-10-07T08:50:30.258Z,52.81
2022-10-07T08:53:07.753Z,52.33
2022-10-07T08:55:44.700Z,51.95
2022-10-07T08:58:39.448Z,51.20
2022-10-07T09:01:23.727Z,50.96
2022-10-07T09:04:05.961Z,51.35
2022-10-07T09:06:41.874Z,51.09
2022-10-07T09:09:19.432Z,50.24
2022-10-07T09:11:55.155Z,49.03
2022-10-07T09:14:29.144Z,48.55
2022-10-07T09:17:10.038Z,50.44
2022-10-07T09:19:46.547Z,48.55
2022-10-07T09:22:22.159Z,48.00
2022-10-07T09:25:09.025Z,48.18
2022-10-07T09:27:44.116Z,47.64
2022-10-07T09:30:17.255Z,47.16
2022-10-07T09:32:53.628Z,47.72
2022-10-07T09:35:30.860Z,46.37
2022-10-07T09:38:08.564Z,43.91
2022-10-07T09:40:58.498Z,45.57
2022-10-07T09:43:32.192Z,44.93
2022-10-07T09:46:04.732Z,44.64
2022-10-07T09:48:52.071Z,45.05
2022-10-07T09:51:26.401Z,45.17
2022-10-07T09:54:02.075Z,44.08
2022-10-07T09:56:40.594Z,44.22
2022-10-07T09:59:21.993Z,44.10
2022-10-07T10:01:56.475Z,44.10
2022-10-07T10:04:32.773Z,44.43
2022-10-07T10:07:15.713Z,44.53
2022-10-07T10:09:49.611Z,45.12
2022-10-07T10:12:24.115Z,44.45
2022-10-07T10:14:59.428Z,45.03
2022-10-07T10:17:38.753Z,43.84
2022-10-07T10:20:35.367Z,44.34
2022-10-07T10:23:26.416Z,43.77
2022-10-07T10:26:28.192Z,44.04
2022-10-07T10:29:17.107Z,43.41
2022-10-07T10:32:09.098Z,43.71
2022-10-07T10:34:50.129Z,42.69
2022-10-07T10:37:27.719Z,43.20
2022-10-07T10:40:07.423Z,41.97
2022-10-07T10:42:48.399Z,40.88
2022-10-07T10:45:34.517Z,41.08
2022-10-07T10:48:23.911Z,40.58
2022-10-07T10:51:05.875Z,40.97
2022-10-07T10:53:50.696Z,40.92
2022-10-07T10:56:36.123Z,40.84
2022-10-07T10:59:26.209Z,40.25
2022-10-07T11:02:17.587Z,39.25
2022-10-07T11:04:54.628Z,38.79
2022-10-07T11:07:32.740Z,40.50
2022-10-07T11:10:17.862Z,38.84
2022-10-07T11:12:56.162Z,39.63
2022-10-07T11:15:33.069Z,39.86
2022-10-07T11:18:11.594Z,40.20
2022-10-07T11:20:47.491Z,40.19
2022-10-07T11:23:25.051Z,39.48
2022-10-07T11:26:02.751Z,39.28
2022-10-07T11:28:39.546Z,39.50
2022-10-07T11:31:21.027Z,39.96
2022-10-07T11:34:06.656Z,40.81
2022-10-07T11:36:45.167Z,39.63
2022-10-07T11:39:17.770Z,40.08
2022-10-07T11:41:56.262Z,38.83
2022-10-07T11:44:32.733Z,39.09
2022-10-07T11:47:10.503Z,38.80
2022-10-07T11:49:55.195Z,37.64
2022-10-07T11:52:30.599Z,38.29
2022-10-07T11:55:06.514Z,38.45
2022-10-07T11:57:42.560Z,38.26
2022-10-07T12:00:24.717Z,37.60
2022-10-07T12:02:57.200Z,37.99
2022-10-07T12:06:11.438Z,38.61
2022-10-07T12:08:44.710Z,38.60
2022-10-07T12:11:46.153Z,39.13
2022-10-07T12:14:40.183Z,38.91
2022-10-07T12:17:22.491Z,39.96
2022-10-07T12:20:32.048Z,39.25
2022-10-07T12:23:35.735Z,40.21
2022-10-07T12:26:47.916Z,40.07
2022-10-07T12:29:39.532Z,40.50
2022-10-07T12:32:41.893Z,40.95
2022-10-07T12:35:40.451Z,39.62
2022-10-07T12:38:16.905Z,40.01
2022-10-07T12:40:59.379Z,39.64
2022-10-07T12:43:45.546Z,39.47
2022-10-07T12:46:21.224Z,39.07
2022-10-07T12:49:00.392Z,38.83
2022-10-07T12:51:38.031Z,39.29
2022-10-07T12:54:17.558Z,38.39
2022-10-07T12:56:50.291Z,38.26
2022-10-07T12:59:53.239Z,38.80
2022-10-07T13:03:22.435Z,39.44
2022-10-07T13:06:28.855Z,38.42
2022-10-07T13:09:26.629Z,39.69
2022-10-07T13:12:16.987Z,38.36
2022-10-07T13:14:59.418Z,39.08
2022-10-07T13:17:41.042Z,39.44
2022-10-07T13:20:32.154Z,38.08
2022-10-07T13:23:11.619Z,38.55
2022-10-07T13:25:45.269Z,38.67
2022-10-07T13:28:21.623Z,39.10
2022-10-07T13:30:54.061Z,40.16
2022-10-07T13:33:29.566Z,40.24
2022-10-07T13:36:20.125Z,38.59
2022-10-07T13:39:10.395Z,38.71
2022-10-07T13:41:45.077Z,39.44
2022-10-07T13:44:19.722Z,39.19
2022-10-07T13:46:57.248Z,39.61
2022-10-07T13:49:34.619Z,39.09
2022-10-07T13:52:18.343Z,38.75
2022-10-07T13:54:52.471Z,38.38
2022-10-07T13:57:28.502Z,39.50
2022-10-07T14:00:01.065Z,38.69
2022-10-07T14:02:39.244Z,39.80
2022-10-07T14:05:19.961Z,39.10
2022-10-07T14:07:53.831Z,38.33
2022-10-07T14:10:29.421Z,38.87
2022-10-07T14:13:09.011Z,39.05
2022-10-07T14:15:47.336Z,38.00
2022-10-07T14:18:19.858Z,38.95
2022-10-07T14:20:54.460Z,38.54
2022-10-07T14:23:30.381Z,37.27
2022-10-07T14:26:05.579Z,38.54
2022-10-07T14:28:39.464Z,37.82
2022-10-07T14:31:37.123Z,38.72
2022-10-07T14:34:31.462Z,37.85
2022-10-07T14:37:05.502Z,38.23
2022-10-07T14:39:39.354Z,38.85
2022-10-07T14:42:15.337Z,38.51
2022-10-07T14:44:48.794Z,37.96
2022-10-07T14:47:23.764Z,38.69
2022-10-07T14:49:58.741Z,39.22
2022-10-07T14:52:35.253Z,39.33
2022-10-07T14:55:12.919Z,39.78
2022-10-07T14:57:47.426Z,40.55
2022-10-07T15:00:22.091Z,40.84
2022-10-07T15:02:54.392Z,40.51
2022-10-07T15:05:26.829Z,40.78
2022-10-07T15:07:59.528Z,40.59
2022-10-07T15:10:32.670Z,40.83
2022-10-07T15:13:08.611Z,41.40
2022-10-07T15:15:45.343Z,41.98
2022-10-07T15:18:17.688Z,42.74
2022-10-07T15:20:55.715Z,43.46
2022-10-07T15:23:29.436Z,43.22
2022-10-07T15:26:01.808Z,43.91
2022-10-07T15:28:34.865Z,44.39
2022-10-07T15:31:09.434Z,44.60
2022-10-07T15:33:41.979Z,45.32
2022-10-07T15:36:14.999Z,45.33
2022-10-07T15:38:47.294Z,45.43
2022-10-07T15:41:33.167Z,46.84
2022-10-07T15:44:12.011Z,46.71
2022-10-07T15:46:45.525Z,47.32
2022-10-07T15:49:17.836Z,46.96
2022-10-07T15:51:50.575Z,47.66
2022-10-07T15:54:24.380Z,47.76
2022-10-07T15:56:56.710Z,47.94
2022-10-07T15:59:29.680Z,48.57
2022-10-07T16:02:03.024Z,48.75
2022-10-07T16:04:35.328Z,48.62
2022-10-07T16:07:10.551Z,48.83
2022-10-07T16:09:42.863Z,49.01
2022-10-07T16:12:15.205Z,49.12
2022-10-07T16:14:48.386Z,49.51
2022-10-07T16:17:21.263Z,49.07
2022-10-07T16:19:53.543Z,49.51
2022-10-07T16:22:25.862Z,49.84
2022-10-07T16:24:58.177Z,50.00
2022-10-07T16:27:45.271Z,49.80
2022-10-07T16:30:36.433Z,50.70
2022-10-07T16:33:08.798Z,50.56
2022-10-07T16:35:41.563Z,50.98
2022-10-07T16:38:14.513Z,51.53
2022-10-07T16:40:53.960Z,52.29
2022-10-07T16:43:26.452Z,52.29
2022-10-07T16:46:01.950Z,53.09
2022-10-07T16:48:38.577Z,53.25
2022-10-07T16:51:11.830Z,53.88
2022-10-07T16:53:45.980Z,54.21
2022-10-07T16:56:20.240Z,54.41
2022-10-07T16:58:55.421Z,54.95
2022-10-07T17:01:29.472Z,55.71
2022-10-07T17:04:01.914Z,56.10
2022-10-07T17:06:34.687Z,56.47
2022-10-07T17:09:07.072Z,57.04
2022-10-07T17:11:40.031Z,57.59
2022-10-07T17:14:15.577Z,57.82
2022-10-07T17:16:49.919Z,57.70
2022-10-07T17:19:24.103Z,57.81
2022-10-07T17:21:58.532Z,58.21
2022-10-07T17:24:30.935Z,57.51
2022-10-07T17:27:03.419Z,57.83
2022-10-07T17:29:37.707Z,57.79
2022-10-07T17:32:10.722Z,58.61
2022-10-07T17:34:45.464Z,58.58
2022-10-07T17:37:17.990Z,58.35
2022-10-07T17:39:50.599Z,58.21
2022-10-07T17:42:23.020Z,58.04
2022-10-07T17:44:55.339Z,57.61
2022-10-07T17:47:28.365Z,57.33
2022-10-07T17:50:00.688Z,57.03
2022-10-07T17:52:32.970Z,57.28
2022-10-07T17:55:06.768Z,57.09
2022-10-07T17:57:39.470Z,56.69
2022-10-07T18:00:12.621Z,56.72
2022-10-07T18:02:49.484Z,56.56
2022-10-07T18:05:21.833Z,56.81
2022-10-07T18:07:54.255Z,56.42
2022-10-07T18:10:26.680Z,56.72
2022-10-07T18:13:19.119Z,57.56
2022-10-07T18:15:57.400Z,57.54
2022-10-07T18:18:31.105Z,57.93
2022-10-07T18:21:04.264Z,57.75
2022-10-07T18:23:37.651Z,57.49
2022-10-07T18:26:12.786Z,58.74
2022-10-07T18:28:46.000Z,59.24
2022-10-07T18:31:18.888Z,59.67
2022-10-07T18:33:51.934Z,60.29
2022-10-07T18:36:24.347Z,60.87
2022-10-07T18:38:57.107Z,61.09
2022-10-07T18:41:29.577Z,61.48
2022-10-07T18:44:01.894Z,60.90
2022-10-07T18:46:34.257Z,60.91
2022-10-07T18:49:08.662Z,60.69
2022-10-07T18:51:41.230Z,61.28
2022-10-07T18:54:13.763Z,61.83
2022-10-07T18:56:46.395Z,62.47
2022-10-07T18:59:19.570Z,62.79
2022-10-07T19:01:52.008Z,62.35
2022-10-07T19:04:25.218Z,62.35
2022-10-07T19:06:57.595Z,62.48
2022-10-07T19:09:32.875Z,61.90
2022-10-07T19:12:25.990Z,62.89
2022-10-07T19:14:57.972Z,62.32
2022-10-07T19:17:31.713Z,62.99
2022-10-07T19:20:05.436Z,63.77
2022-10-07T19:22:37.767Z,63.46
2022-10-07T19:25:28.291Z,63.57
2022-10-07T19:28:00.791Z,64.30
2022-10-07T19:30:33.175Z,63.14
2022-10-07T19:33:05.560Z,63.18
2022-10-07T19:35:38.882Z,62.63
2022-10-07T19:38:11.728Z,61.13
2022-10-07T19:40:44.403Z,60.73
2022-10-07T19:43:16.966Z,61.19
2022-10-07T19:45:50.547Z,61.08
2022-10-07T19:48:22.928Z,61.42
2022-10-07T19:50:59.786Z,61.12
2022-10-07T19:53:33.434Z,60.98
2022-10-07T19:56:11.991Z,61.36
2022-10-07T19:58:47.091Z,62.70
2022-10-07T20:01:21.443Z,61.73
2022-10-07T20:03:56.690Z,61.59
2022-10-07T20:06:29.879Z,61.65
2022-10-07T20:09:03.530Z,62.93
2022-10-07T20:11:35.941Z,63.14
2022-10-07T20:14:09.350Z,64.96
2022-10-07T20:16:42.310Z,65.48
2022-10-07T20:19:17.850Z,66.15
2022-10-07T20:21:50.813Z,65.96
2022-10-07T20:24:23.140Z,65.97
2022-10-07T20:26:55.440Z,66.12
2022-10-07T20:29:27.780Z,66.47
2022-10-07T20:32:00.162Z,67.27
2022-10-07T20:34:32.670Z,67.46
2022-10-07T20:37:05.648Z,67.28
2022-10-07T20:39:58.390Z,68.11
2022-10-07T20:42:32.341Z,68.96
2022-10-07T20:45:05.668Z,69.34
2022-10-07T20:47:38.026Z,70.45
2022-10-07T20:50:11.047Z,71.09
2022-10-07T20:52:44.840Z,71.83
2022-10-07T20:55:17.441Z,72.48
2022-10-07T20:57:50.506Z,73.30
2022-10-07T21:00:22.855Z,74.23
2022-10-07T21:02:55.307Z,74.58
2022-10-07T21:05:28.698Z,74.65
2022-10-07T21:08:01.692Z,74.82
2022-10-07T21:10:34.019Z,75.19
2022-10-07T21:13:06.382Z,74.51
2022-10-07T21:15:38.774Z,74.32
2022-10-07T21:18:11.074Z,73.06
2022-10-07T21:20:55.534Z,72.72
2022-10-07T21:23:30.305Z,72.51
2022-10-07T21:26:03.318Z,72.76
2022-10-07T21:28:39.125Z,72.69
2022-10-07T21:31:16.610Z,72.49
2022-10-07T21:33:50.008Z,73.23
2022-10-07T21:36:23.540Z,73.08
2022-10-07T21:38:58.270Z,72.72
2022-10-07T21:41:33.578Z,73.25
2022-10-07T21:44:09.179Z,73.60
2022-10-07T21:46:43.173Z,74.83
2022-10-07T21:49:16.394Z,74.34
2022-10-07T21:51:48.709Z,75.29
2022-10-07T21:54:21.685Z,75.79
2022-10-07T21:56:54.049Z,75.75
2022-10-07T21:59:26.359Z,75.17
2022-10-07T22:01:58.685Z,74.86
2022-10-07T22:04:31.068Z,74.39
2022-10-07T22:07:21.658Z,72.90
2022-10-07T22:09:54.611Z,69.04
2022-10-07T22:12:26.963Z,68.20
2022-10-07T22:14:59.605Z,68.77
2022-10-07T22:17:34.058Z,69.29
2022-10-07T22:20:08.808Z,68.67
2022-10-07T22:22:41.600Z,67.54
2022-10-07T22:25:14.719Z,69.57
2022-10-07T22:27:48.071Z,70.49
2022-10-07T22:30:20.846Z,71.37
2022-10-07T22:32:53.298Z,71.09
2022-10-07T22:35:29.613Z,72.68
2022-10-07T22:38:02.056Z,72.99
2022-10-07T22:40:37.579Z,73.94
2022-10-07T22:43:09.943Z,74.27
2022-10-07T22:45:42.621Z,75.15
2022-10-07T22:48:15.298Z,74.96
2022-10-07T22:50:47.642Z,75.36
2022-10-07T22:53:20.227Z,76.04
2022-10-07T22:55:53.166Z,77.36
2022-10-07T22:58:25.488Z,77.19
2022-10-07T23:01:02.688Z,76.23
2022-10-07T23:03:37.711Z,76.31
2022-10-07T23:06:12.269Z,76.46
2022-10-07T23:08:46.128Z,74.90
2022-10-07T23:11:21.506Z,74.57
2022-10-07T23:13:54.724Z,74.15
2022-10-07T23:16:29.744Z,74.39
2022-10-07T23:19:02.226Z,75.14
2022-10-07T23:21:34.579Z,74.43
2022-10-07T23:24:09.132Z,74.91
2022-10-07T23:26:43.076Z,75.82
2022-10-07T23:29:15.602Z,76.60
2022-10-07T23:31:48.435Z,76.40
2022-10-07T23:34:20.813Z,77.23
2022-10-07T23:36:54.568Z,77.41
2022-10-07T23:39:27.093Z,78.04
2022-10-07T23:42:00.086Z,77.96
2022-10-07T23:44:32.451Z,77.72
2022-10-07T23:47:05.375Z,77.59
2022-10-07T23:49:37.805Z,77.20
2022-10-07T23:52:10.110Z,76.91
2022-10-07T23:54:42.443Z,76.52
2022-10-07T23:57:15.443Z,76.58
2022-10-07T23:59:47.760Z,76.35
